sensor_id;sensor_type;location;lat;lon;timestamp;P1;durP1;ratioP1;P2;durP2;ratioP2
39918;SDS011;25589;51.552;13.424;2023-10-19T00:00:48;9.50;;;6.72;;
39918;SDS011;25589;51.552;13.424;2023-10-19T00:03:16;11.82;;;7.47;;
39918;SDS011;25589;51.552;13.424;2023-10-19T00:05:43;11.07;;;6.90;;
39918;SDS011;25589;51.552;13.424;2023-10-19T00:08:10;11.57;;;6.47;;
39918;SDS011;25589;51.552;13.424;2023-10-19T00:10:46;11.68;;;6.60;;
39918;SDS011;25589;51.552;13.424;2023-10-19T00:13:29;13.38;;;7.55;;
39918;SDS011;25589;51.552;13.424;2023-10-19T00:15:55;11.68;;;7.00;;
39918;SDS011;25589;51.552;13.424;2023-10-19T00:18:23;9.35;;;6.28;;
39918;SDS011;25589;51.552;13.424;2023-10-19T00:20:55;12.10;;;7.05;;
39918;SDS011;25589;51.552;13.424;2023-10-19T00:23:44;10.27;;;7.22;;
39918;SDS011;25589;51.552;13.424;2023-10-19T00:26:12;8.50;;;5.70;;
39918;SDS011;25589;51.552;13.424;2023-10-19T00:28:54;12.48;;;6.20;;
39918;SDS011;25589;51.552;13.424;2023-10-19T00:31:21;14.10;;;6.68;;
39918;SDS011;25589;51.552;13.424;2023-10-19T00:33:47;7.38;;;5.85;;
39918;SDS011;25589;51.552;13.424;2023-10-19T00:36:16;10.27;;;6.10;;
39918;SDS011;25589;51.552;13.424;2023-10-19T00:38:45;9.13;;;6.57;;
39918;SDS011;25589;51.552;13.424;2023-10-19T00:41:14;8.27;;;5.95;;
39918;SDS011;25589;51.552;13.424;2023-10-19T00:43:46;8.10;;;6.18;;
39918;SDS011;25589;51.552;13.424;2023-10-19T00:46:15;9.00;;;6.05;;
39918;SDS011;25589;51.552;13.424;2023-10-19T00:48:45;11.30;;;6.35;;
39918;SDS011;25589;51.552;13.424;2023-10-19T00:51:14;8.07;;;5.78;;
39918;SDS011;25589;51.552;13.424;2023-10-19T00:54:04;9.23;;;6.35;;
39918;SDS011;25589;51.552;13.424;2023-10-19T00:56:36;9.65;;;5.80;;
39918;SDS011;25589;51.552;13.424;2023-10-19T00:59:02;7.93;;;5.85;;
39918;SDS011;25589;51.552;13.424;2023-10-19T01:01:44;8.07;;;5.90;;
39918;SDS011;25589;51.552;13.424;2023-10-19T01:04:14;13.70;;;6.40;;
39918;SDS011;25589;51.552;13.424;2023-10-19T01:06:45;7.55;;;5.72;;
39918;SDS011;25589;51.552;13.424;2023-10-19T01:09:26;10.82;;;6.38;;
39918;SDS011;25589;51.552;13.424;2023-10-19T01:11:52;10.10;;;6.60;;
39918;SDS011;25589;51.552;13.424;2023-10-19T01:14:19;12.23;;;6.68;;
39918;SDS011;25589;51.552;13.424;2023-10-19T01:16:53;7.93;;;5.75;;
39918;SDS011;25589;51.552;13.424;2023-10-19T01:19:22;11.60;;;6.68;;
39918;SDS011;25589;51.552;13.424;2023-10-19T01:21:48;8.82;;;5.90;;
39918;SDS011;25589;51.552;13.424;2023-10-19T01:24:21;14.38;;;6.97;;
39918;SDS011;25589;51.552;13.424;2023-10-19T01:27:05;8.93;;;5.63;;
39918;SDS011;25589;51.552;13.424;2023-10-19T01:29:34;11.90;;;5.78;;
39918;SDS011;25589;51.552;13.424;2023-10-19T01:32:00;8.55;;;5.95;;
39918;SDS011;25589;51.552;13.424;2023-10-19T01:34:32;8.82;;;5.70;;
39918;SDS011;25589;51.552;13.424;2023-10-19T01:36:59;9.10;;;5.78;;
39918;SDS011;25589;51.552;13.424;2023-10-19T01:39:28;12.02;;;5.78;;
39918;SDS011;25589;51.552;13.424;2023-10-19T01:41:54;11.23;;;6.03;;
39918;SDS011;25589;51.552;13.424;2023-10-19T01:44:20;7.38;;;5.50;;
39918;SDS011;25589;51.552;13.424;2023-10-19T01:46:46;7.90;;;4.78;;
39918;SDS011;25589;51.552;13.424;2023-10-19T01:49:14;9.32;;;5.63;;
39918;SDS011;25589;51.552;13.424;2023-10-19T01:51:44;12.27;;;5.38;;
39918;SDS011;25589;51.552;13.424;2023-10-19T01:54:12;8.38;;;6.45;;
39918;SDS011;25589;51.552;13.424;2023-10-19T01:56:39;16.02;;;5.68;;
39918;SDS011;25589;51.552;13.424;2023-10-19T01:59:08;10.60;;;5.95;;
39918;SDS011;25589;51.552;13.424;2023-10-19T02:01:34;10.98;;;5.78;;
39918;SDS011;25589;51.552;13.424;2023-10-19T02:04:03;7.18;;;5.32;;
39918;SDS011;25589;51.552;13.424;2023-10-19T02:06:31;10.10;;;5.78;;
39918;SDS011;25589;51.552;13.424;2023-10-19T02:09:07;8.35;;;5.47;;
39918;SDS011;25589;51.552;13.424;2023-10-19T02:11:43;10.73;;;5.82;;
39918;SDS011;25589;51.552;13.424;2023-10-19T02:14:13;9.10;;;5.78;;
39918;SDS011;25589;51.552;13.424;2023-10-19T02:16:44;10.30;;;5.85;;
39918;SDS011;25589;51.552;13.424;2023-10-19T02:19:16;9.23;;;5.63;;
39918;SDS011;25589;51.552;13.424;2023-10-19T02:21:42;8.73;;;5.40;;
39918;SDS011;25589;51.552;13.424;2023-10-19T02:24:08;8.45;;;5.38;;
39918;SDS011;25589;51.552;13.424;2023-10-19T02:26:36;6.95;;;5.03;;
39918;SDS011;25589;51.552;13.424;2023-10-19T02:29:03;6.60;;;5.13;;
39918;SDS011;25589;51.552;13.424;2023-10-19T02:31:35;9.20;;;5.32;;
39918;SDS011;25589;51.552;13.424;2023-10-19T02:34:05;10.65;;;5.65;;
39918;SDS011;25589;51.552;13.424;2023-10-19T02:36:35;6.60;;;4.97;;
39918;SDS011;25589;51.552;13.424;2023-10-19T02:39:04;9.35;;;5.70;;
39918;SDS011;25589;51.552;13.424;2023-10-19T02:41:38;8.18;;;5.30;;
39918;SDS011;25589;51.552;13.424;2023-10-19T02:44:08;7.85;;;5.55;;
39918;SDS011;25589;51.552;13.424;2023-10-19T02:46:34;10.23;;;5.63;;
39918;SDS011;25589;51.552;13.424;2023-10-19T02:49:08;9.52;;;5.30;;
39918;SDS011;25589;51.552;13.424;2023-10-19T02:51:39;5.70;;;4.78;;
39918;SDS011;25589;51.552;13.424;2023-10-19T02:54:06;8.35;;;5.18;;
39918;SDS011;25589;51.552;13.424;2023-10-19T02:56:33;8.45;;;5.72;;
39918;SDS011;25589;51.552;13.424;2023-10-19T02:59:00;8.65;;;4.72;;
39918;SDS011;25589;51.552;13.424;2023-10-19T03:01:29;7.55;;;4.82;;
39918;SDS011;25589;51.552;13.424;2023-10-19T03:03:59;10.95;;;4.82;;
39918;SDS011;25589;51.552;13.424;2023-10-19T03:06:26;10.10;;;5.60;;
39918;SDS011;25589;51.552;13.424;2023-10-19T03:09:03;7.35;;;5.20;;
39918;SDS011;25589;51.552;13.424;2023-10-19T03:11:30;8.73;;;5.30;;
39918;SDS011;25589;51.552;13.424;2023-10-19T03:13:59;7.82;;;5.68;;
39918;SDS011;25589;51.552;13.424;2023-10-19T03:16:26;9.95;;;5.57;;
39918;SDS011;25589;51.552;13.424;2023-10-19T03:18:55;11.18;;;5.97;;
39918;SDS011;25589;51.552;13.424;2023-10-19T03:21:21;7.85;;;5.60;;
39918;SDS011;25589;51.552;13.424;2023-10-19T03:23:52;7.47;;;5.35;;
39918;SDS011;25589;51.552;13.424;2023-10-19T03:26:18;6.95;;;5.63;;
39918;SDS011;25589;51.552;13.424;2023-10-19T03:31:32;11.20;;;5.82;;
39918;SDS011;25589;51.552;13.424;2023-10-19T03:33:58;9.02;;;5.80;;
39918;SDS011;25589;51.552;13.424;2023-10-19T03:36:24;12.20;;;6.60;;
39918;SDS011;25589;51.552;13.424;2023-10-19T03:38:51;14.35;;;6.90;;
39918;SDS011;25589;51.552;13.424;2023-10-19T03:41:19;9.88;;;6.40;;
39918;SDS011;25589;51.552;13.424;2023-10-19T03:43:53;8.20;;;5.78;;
39918;SDS011;25589;51.552;13.424;2023-10-19T03:46:20;10.57;;;6.13;;
39918;SDS011;25589;51.552;13.424;2023-10-19T03:48:59;9.15;;;6.15;;
39918;SDS011;25589;51.552;13.424;2023-10-19T03:51:36;9.90;;;6.45;;
39918;SDS011;25589;51.552;13.424;2023-10-19T03:54:08;12.60;;;5.57;;
39918;SDS011;25589;51.552;13.424;2023-10-19T03:56:49;13.50;;;7.10;;
39918;SDS011;25589;51.552;13.424;2023-10-19T03:59:19;8.98;;;5.97;;
39918;SDS011;25589;51.552;13.424;2023-10-19T04:01:48;9.10;;;6.15;;
39918;SDS011;25589;51.552;13.424;2023-10-19T04:04:14;8.35;;;6.43;;
39918;SDS011;25589;51.552;13.424;2023-10-19T04:06:41;11.23;;;6.03;;
39918;SDS011;25589;51.552;13.424;2023-10-19T04:09:12;12.68;;;6.50;;
39918;SDS011;25589;51.552;13.424;2023-10-19T04:11:41;12.88;;;7.28;;
39918;SDS011;25589;51.552;13.424;2023-10-19T04:14:13;10.93;;;6.57;;
39918;SDS011;25589;51.552;13.424;2023-10-19T04:16:43;9.98;;;6.38;;
39918;SDS011;25589;51.552;13.424;2023-10-19T04:19:09;12.95;;;6.95;;
39918;SDS011;25589;51.552;13.424;2023-10-19T04:21:35;13.05;;;6.28;;
39918;SDS011;25589;51.552;13.424;2023-10-19T04:24:04;9.55;;;6.05;;
39918;SDS011;25589;51.552;13.424;2023-10-19T04:26:32;9.95;;;6.35;;
39918;SDS011;25589;51.552;13.424;2023-10-19T04:29:02;14.35;;;6.80;;
39918;SDS011;25589;51.552;13.424;2023-10-19T04:31:35;13.63;;;6.88;;
39918;SDS011;25589;51.552;13.424;2023-10-19T04:34:02;9.20;;;6.45;;
39918;SDS011;25589;51.552;13.424;2023-10-19T04:36:32;10.60;;;7.45;;
39918;SDS011;25589;51.552;13.424;2023-10-19T04:38:59;10.18;;;6.55;;
39918;SDS011;25589;51.552;13.424;2023-10-19T04:41:25;10.57;;;7.18;;
39918;SDS011;25589;51.552;13.424;2023-10-19T04:43:52;10.38;;;7.00;;
39918;SDS011;25589;51.552;13.424;2023-10-19T04:46:19;10.30;;;6.60;;
39918;SDS011;25589;51.552;13.424;2023-10-19T04:48:45;10.63;;;6.93;;
39918;SDS011;25589;51.552;13.424;2023-10-19T04:51:11;9.60;;;7.13;;
39918;SDS011;25589;51.552;13.424;2023-10-19T04:53:37;10.95;;;6.88;;
39918;SDS011;25589;51.552;13.424;2023-10-19T04:56:03;9.10;;;7.07;;
39918;SDS011;25589;51.552;13.424;2023-10-19T04:58:30;9.60;;;6.75;;
39918;SDS011;25589;51.552;13.424;2023-10-19T05:00:56;11.02;;;6.93;;
39918;SDS011;25589;51.552;13.424;2023-10-19T05:03:24;11.98;;;7.22;;
39918;SDS011;25589;51.552;13.424;2023-10-19T05:05:50;9.27;;;7.65;;
39918;SDS011;25589;51.552;13.424;2023-10-19T05:08:16;9.35;;;7.05;;
39918;SDS011;25589;51.552;13.424;2023-10-19T05:10:42;11.73;;;7.35;;
39918;SDS011;25589;51.552;13.424;2023-10-19T05:13:07;9.88;;;6.90;;
39918;SDS011;25589;51.552;13.424;2023-10-19T05:15:33;11.85;;;7.80;;
39918;SDS011;25589;51.552;13.424;2023-10-19T05:17:59;12.65;;;7.65;;
39918;SDS011;25589;51.552;13.424;2023-10-19T05:20:25;11.13;;;7.65;;
39918;SDS011;25589;51.552;13.424;2023-10-19T05:22:51;11.85;;;7.95;;
39918;SDS011;25589;51.552;13.424;2023-10-19T05:25:16;11.90;;;8.10;;
39918;SDS011;25589;51.552;13.424;2023-10-19T05:27:42;10.88;;;7.57;;
39918;SDS011;25589;51.552;13.424;2023-10-19T05:30:08;12.38;;;8.18;;
39918;SDS011;25589;51.552;13.424;2023-10-19T05:32:36;13.82;;;8.55;;
39918;SDS011;25589;51.552;13.424;2023-10-19T05:35:02;10.55;;;8.05;;
39918;SDS011;25589;51.552;13.424;2023-10-19T05:37:30;13.88;;;8.63;;
39918;SDS011;25589;51.552;13.424;2023-10-19T05:39:56;11.48;;;7.72;;
39918;SDS011;25589;51.552;13.424;2023-10-19T05:42:22;12.60;;;8.38;;
39918;SDS011;25589;51.552;13.424;2023-10-19T05:44:48;14.00;;;8.80;;
39918;SDS011;25589;51.552;13.424;2023-10-19T05:47:13;13.90;;;8.73;;
39918;SDS011;25589;51.552;13.424;2023-10-19T05:49:39;11.77;;;8.77;;
39918;SDS011;25589;51.552;13.424;2023-10-19T05:52:04;14.40;;;8.52;;
39918;SDS011;25589;51.552;13.424;2023-10-19T05:54:30;14.82;;;9.05;;
39918;SDS011;25589;51.552;13.424;2023-10-19T05:56:55;14.35;;;8.95;;
39918;SDS011;25589;51.552;13.424;2023-10-19T05:59:21;15.20;;;9.40;;
39918;SDS011;25589;51.552;13.424;2023-10-19T06:01:48;13.20;;;9.23;;
39918;SDS011;25589;51.552;13.424;2023-10-19T06:04:14;14.07;;;9.13;;
39918;SDS011;25589;51.552;13.424;2023-10-19T06:06:40;17.10;;;9.63;;
39918;SDS011;25589;51.552;13.424;2023-10-19T06:09:05;17.58;;;9.88;;
39918;SDS011;25589;51.552;13.424;2023-10-19T06:11:34;13.85;;;9.90;;
39918;SDS011;25589;51.552;13.424;2023-10-19T06:14:02;12.77;;;9.60;;
39918;SDS011;25589;51.552;13.424;2023-10-19T06:16:32;15.18;;;10.07;;
39918;SDS011;25589;51.552;13.424;2023-10-19T06:18:58;15.05;;;10.02;;
39918;SDS011;25589;51.552;13.424;2023-10-19T06:21:23;15.15;;;10.27;;
39918;SDS011;25589;51.552;13.424;2023-10-19T06:23:49;15.85;;;10.10;;
39918;SDS011;25589;51.552;13.424;2023-10-19T06:26:15;16.58;;;10.93;;
39918;SDS011;25589;51.552;13.424;2023-10-19T06:28:41;17.10;;;10.65;;
39918;SDS011;25589;51.552;13.424;2023-10-19T06:31:07;13.18;;;9.68;;
39918;SDS011;25589;51.552;13.424;2023-10-19T06:33:33;16.50;;;11.25;;
39918;SDS011;25589;51.552;13.424;2023-10-19T06:35:59;15.32;;;10.05;;
39918;SDS011;25589;51.552;13.424;2023-10-19T06:38:28;17.83;;;10.65;;
39918;SDS011;25589;51.552;13.424;2023-10-19T06:40:59;14.23;;;10.52;;
39918;SDS011;25589;51.552;13.424;2023-10-19T06:43:27;17.50;;;11.32;;
39918;SDS011;25589;51.552;13.424;2023-10-19T06:45:55;15.18;;;11.38;;
39918;SDS011;25589;51.552;13.424;2023-10-19T06:48:21;16.75;;;11.75;;
39918;SDS011;25589;51.552;13.424;2023-10-19T06:50:46;19.90;;;11.18;;
39918;SDS011;25589;51.552;13.424;2023-10-19T06:53:12;14.15;;;10.55;;
39918;SDS011;25589;51.552;13.424;2023-10-19T06:55:38;15.27;;;11.02;;
39918;SDS011;25589;51.552;13.424;2023-10-19T06:58:04;15.68;;;11.55;;
39918;SDS011;25589;51.552;13.424;2023-10-19T07:00:30;16.45;;;11.27;;
39918;SDS011;25589;51.552;13.424;2023-10-19T07:02:56;18.33;;;11.50;;
39918;SDS011;25589;51.552;13.424;2023-10-19T07:05:22;16.85;;;11.25;;
39918;SDS011;25589;51.552;13.424;2023-10-19T07:07:49;18.33;;;12.00;;
39918;SDS011;25589;51.552;13.424;2023-10-19T07:10:17;16.67;;;11.00;;
39918;SDS011;25589;51.552;13.424;2023-10-19T07:12:44;16.85;;;11.50;;
39918;SDS011;25589;51.552;13.424;2023-10-19T07:15:11;15.38;;;11.50;;
39918;SDS011;25589;51.552;13.424;2023-10-19T07:17:40;15.38;;;11.38;;
39918;SDS011;25589;51.552;13.424;2023-10-19T07:20:08;16.05;;;11.35;;
39918;SDS011;25589;51.552;13.424;2023-10-19T07:22:47;15.32;;;11.18;;
39918;SDS011;25589;51.552;13.424;2023-10-19T07:25:12;15.75;;;11.75;;
39918;SDS011;25589;51.552;13.424;2023-10-19T07:27:38;16.42;;;10.93;;
39918;SDS011;25589;51.552;13.424;2023-10-19T07:30:07;14.75;;;10.88;;
39918;SDS011;25589;51.552;13.424;2023-10-19T07:32:34;13.85;;;10.68;;
39918;SDS011;25589;51.552;13.424;2023-10-19T07:35:00;15.40;;;11.30;;
39918;SDS011;25589;51.552;13.424;2023-10-19T07:37:26;15.38;;;10.60;;
39918;SDS011;25589;51.552;13.424;2023-10-19T07:39:53;13.90;;;10.15;;
39918;SDS011;25589;51.552;13.424;2023-10-19T07:42:22;14.40;;;10.55;;
39918;SDS011;25589;51.552;13.424;2023-10-19T07:44:47;14.02;;;10.98;;
39918;SDS011;25589;51.552;13.424;2023-10-19T07:47:14;15.15;;;10.73;;
39918;SDS011;25589;51.552;13.424;2023-10-19T07:49:40;13.50;;;10.32;;
39918;SDS011;25589;51.552;13.424;2023-10-19T07:52:05;16.30;;;10.55;;
39918;SDS011;25589;51.552;13.424;2023-10-19T07:54:32;15.38;;;10.65;;
39918;SDS011;25589;51.552;13.424;2023-10-19T07:56:59;15.52;;;10.18;;
39918;SDS011;25589;51.552;13.424;2023-10-19T07:59:28;14.57;;;10.38;;
39918;SDS011;25589;51.552;13.424;2023-10-19T08:01:54;13.70;;;10.85;;
39918;SDS011;25589;51.552;13.424;2023-10-19T08:04:19;14.73;;;10.95;;
39918;SDS011;25589;51.552;13.424;2023-10-19T08:06:45;15.77;;;11.10;;
39918;SDS011;25589;51.552;13.424;2023-10-19T08:09:12;16.25;;;10.68;;
39918;SDS011;25589;51.552;13.424;2023-10-19T08:11:38;13.85;;;11.13;;
39918;SDS011;25589;51.552;13.424;2023-10-19T08:14:03;14.50;;;11.15;;
39918;SDS011;25589;51.552;13.424;2023-10-19T08:16:30;15.48;;;11.63;;
39918;SDS011;25589;51.552;13.424;2023-10-19T08:18:57;14.68;;;10.35;;
39918;SDS011;25589;51.552;13.424;2023-10-19T08:21:23;16.23;;;12.20;;
39918;SDS011;25589;51.552;13.424;2023-10-19T08:23:48;17.42;;;12.48;;
39918;SDS011;25589;51.552;13.424;2023-10-19T08:26:14;14.38;;;11.07;;
39918;SDS011;25589;51.552;13.424;2023-10-19T08:28:40;16.75;;;11.23;;
39918;SDS011;25589;51.552;13.424;2023-10-19T08:31:07;14.27;;;10.82;;
39918;SDS011;25589;51.552;13.424;2023-10-19T08:33:35;13.90;;;11.23;;
39918;SDS011;25589;51.552;13.424;2023-10-19T08:36:03;15.27;;;12.05;;
39918;SDS011;25589;51.552;13.424;2023-10-19T08:38:30;16.67;;;11.98;;
39918;SDS011;25589;51.552;13.424;2023-10-19T08:40:55;20.13;;;13.70;;
39918;SDS011;25589;51.552;13.424;2023-10-19T08:43:22;16.73;;;11.90;;
39918;SDS011;25589;51.552;13.424;2023-10-19T08:45:49;16.80;;;11.68;;
39918;SDS011;25589;51.552;13.424;2023-10-19T08:48:14;17.60;;;12.38;;
39918;SDS011;25589;51.552;13.424;2023-10-19T08:50:41;16.38;;;12.23;;
39918;SDS011;25589;51.552;13.424;2023-10-19T08:53:07;18.25;;;12.82;;
39918;SDS011;25589;51.552;13.424;2023-10-19T08:55:34;15.75;;;13.60;;
39918;SDS011;25589;51.552;13.424;2023-10-19T08:58:00;16.33;;;13.30;;
39918;SDS011;25589;51.552;13.424;2023-10-19T09:00:26;17.60;;;12.90;;
39918;SDS011;25589;51.552;13.424;2023-10-19T09:02:52;17.70;;;13.80;;
39918;SDS011;25589;51.552;13.424;2023-10-19T09:05:19;18.00;;;13.32;;
39918;SDS011;25589;51.552;13.424;2023-10-19T09:07:47;18.00;;;13.13;;
39918;SDS011;25589;51.552;13.424;2023-10-19T09:10:24;17.75;;;13.15;;
39918;SDS011;25589;51.552;13.424;2023-10-19T09:13:05;17.85;;;12.85;;
39918;SDS011;25589;51.552;13.424;2023-10-19T09:15:35;18.58;;;12.45;;
39918;SDS011;25589;51.552;13.424;2023-10-19T09:18:14;20.25;;;14.02;;
39918;SDS011;25589;51.552;13.424;2023-10-19T09:20:41;19.30;;;13.32;;
39918;SDS011;25589;51.552;13.424;2023-10-19T09:23:07;19.90;;;13.65;;
39918;SDS011;25589;51.552;13.424;2023-10-19T09:25:33;18.63;;;13.68;;
39918;SDS011;25589;51.552;13.424;2023-10-19T09:28:00;18.55;;;14.10;;
39918;SDS011;25589;51.552;13.424;2023-10-19T09:30:27;18.40;;;13.23;;
39918;SDS011;25589;51.552;13.424;2023-10-19T09:32:56;18.02;;;13.40;;
39918;SDS011;25589;51.552;13.424;2023-10-19T09:35:22;19.90;;;13.95;;
39918;SDS011;25589;51.552;13.424;2023-10-19T09:37:53;19.17;;;14.27;;
39918;SDS011;25589;51.552;13.424;2023-10-19T09:40:19;16.73;;;13.30;;
39918;SDS011;25589;51.552;13.424;2023-10-19T09:42:46;19.90;;;14.43;;
39918;SDS011;25589;51.552;13.424;2023-10-19T09:45:16;16.52;;;12.52;;
39918;SDS011;25589;51.552;13.424;2023-10-19T09:47:47;20.70;;;13.68;;
39918;SDS011;25589;51.552;13.424;2023-10-19T09:50:15;19.88;;;13.50;;
39918;SDS011;25589;51.552;13.424;2023-10-19T09:52:41;20.63;;;13.73;;
39918;SDS011;25589;51.552;13.424;2023-10-19T09:57:52;18.92;;;13.93;;
39918;SDS011;25589;51.552;13.424;2023-10-19T10:00:21;18.33;;;13.07;;
39918;SDS011;25589;51.552;13.424;2023-10-19T10:02:51;16.13;;;13.13;;
39918;SDS011;25589;51.552;13.424;2023-10-19T10:10:42;19.02;;;13.85;;
39918;SDS011;25589;51.552;13.424;2023-10-19T10:15:57;20.38;;;12.88;;
39918;SDS011;25589;51.552;13.424;2023-10-19T10:18:24;17.05;;;12.90;;
39918;SDS011;25589;51.552;13.424;2023-10-19T10:21:06;18.33;;;12.82;;
39918;SDS011;25589;51.552;13.424;2023-10-19T10:23:41;19.50;;;13.23;;
39918;SDS011;25589;51.552;13.424;2023-10-19T10:26:21;20.23;;;13.45;;
39918;SDS011;25589;51.552;13.424;2023-10-19T10:31:35;18.77;;;12.88;;
39918;SDS011;25589;51.552;13.424;2023-10-19T10:34:07;18.63;;;12.57;;
39918;SDS011;25589;51.552;13.424;2023-10-19T10:39:19;20.83;;;13.15;;
39918;SDS011;25589;51.552;13.424;2023-10-19T10:41:44;17.98;;;12.60;;
39918;SDS011;25589;51.552;13.424;2023-10-19T10:44:19;19.10;;;13.40;;
39918;SDS011;25589;51.552;13.424;2023-10-19T10:46:45;17.33;;;12.38;;
39918;SDS011;25589;51.552;13.424;2023-10-19T10:49:15;17.25;;;12.52;;
39918;SDS011;25589;51.552;13.424;2023-10-19T10:51:41;17.05;;;11.68;;
39918;SDS011;25589;51.552;13.424;2023-10-19T10:54:06;15.65;;;11.98;;
39918;SDS011;25589;51.552;13.424;2023-10-19T10:56:39;15.80;;;12.38;;
39918;SDS011;25589;51.552;13.424;2023-10-19T10:59:14;19.27;;;11.88;;
39918;SDS011;25589;51.552;13.424;2023-10-19T11:01:40;18.23;;;12.80;;
39918;SDS011;25589;51.552;13.424;2023-10-19T11:04:08;16.92;;;12.95;;
39918;SDS011;25589;51.552;13.424;2023-10-19T11:06:48;16.27;;;12.25;;
39918;SDS011;25589;51.552;13.424;2023-10-19T11:09:14;18.85;;;12.32;;
39918;SDS011;25589;51.552;13.424;2023-10-19T11:11:53;16.35;;;12.43;;
39918;SDS011;25589;51.552;13.424;2023-10-19T11:14:19;16.33;;;12.15;;
39918;SDS011;25589;51.552;13.424;2023-10-19T11:16:47;15.15;;;11.52;;
39918;SDS011;25589;51.552;13.424;2023-10-19T11:19:12;19.02;;;13.40;;
39918;SDS011;25589;51.552;13.424;2023-10-19T11:21:38;17.60;;;12.15;;
39918;SDS011;25589;51.552;13.424;2023-10-19T11:24:23;14.90;;;12.05;;
39918;SDS011;25589;51.552;13.424;2023-10-19T11:26:51;15.15;;;11.23;;
39918;SDS011;25589;51.552;13.424;2023-10-19T11:29:16;14.88;;;11.38;;
39918;SDS011;25589;51.552;13.424;2023-10-19T11:31:56;16.27;;;11.23;;
39918;SDS011;25589;51.552;13.424;2023-10-19T11:34:22;13.63;;;10.98;;
39918;SDS011;25589;51.552;13.424;2023-10-19T11:36:51;14.00;;;10.63;;
39918;SDS011;25589;51.552;13.424;2023-10-19T11:39:21;16.95;;;12.15;;
39918;SDS011;25589;51.552;13.424;2023-10-19T11:41:48;15.35;;;11.75;;
39918;SDS011;25589;51.552;13.424;2023-10-19T11:44:14;13.45;;;10.93;;
39918;SDS011;25589;51.552;13.424;2023-10-19T11:46:40;16.05;;;11.90;;
39918;SDS011;25589;51.552;13.424;2023-10-19T11:49:05;16.05;;;11.40;;
39918;SDS011;25589;51.552;13.424;2023-10-19T11:51:31;14.30;;;10.88;;
39918;SDS011;25589;51.552;13.424;2023-10-19T11:53:56;13.93;;;11.07;;
39918;SDS011;25589;51.552;13.424;2023-10-19T11:56:22;18.70;;;12.38;;
39918;SDS011;25589;51.552;13.424;2023-10-19T11:58:50;21.52;;;15.02;;
39918;SDS011;25589;51.552;13.424;2023-10-19T12:01:16;15.65;;;11.27;;
39918;SDS011;25589;51.552;13.424;2023-10-19T12:03:44;16.15;;;11.57;;
39918;SDS011;25589;51.552;13.424;2023-10-19T12:06:13;26.52;;;23.52;;
39918;SDS011;25589;51.552;13.424;2023-10-19T12:08:45;15.45;;;12.32;;
39918;SDS011;25589;51.552;13.424;2023-10-19T12:11:11;29.40;;;23.08;;
39918;SDS011;25589;51.552;13.424;2023-10-19T12:13:47;18.38;;;14.45;;
39918;SDS011;25589;51.552;13.424;2023-10-19T12:16:13;13.98;;;11.00;;
39918;SDS011;25589;51.552;13.424;2023-10-19T12:18:40;15.90;;;11.50;;
39918;SDS011;25589;51.552;13.424;2023-10-19T12:21:07;15.98;;;12.15;;
39918;SDS011;25589;51.552;13.424;2023-10-19T12:23:37;13.07;;;10.35;;
39918;SDS011;25589;51.552;13.424;2023-10-19T12:26:04;17.95;;;13.40;;
39918;SDS011;25589;51.552;13.424;2023-10-19T12:28:36;27.42;;;18.15;;
39918;SDS011;25589;51.552;13.424;2023-10-19T12:31:03;15.23;;;11.77;;
39918;SDS011;25589;51.552;13.424;2023-10-19T12:33:30;14.32;;;10.45;;
39918;SDS011;25589;51.552;13.424;2023-10-19T12:35:56;14.05;;;10.60;;
39918;SDS011;25589;51.552;13.424;2023-10-19T12:38:24;13.63;;;10.38;;
39918;SDS011;25589;51.552;13.424;2023-10-19T12:40:50;14.05;;;10.77;;
39918;SDS011;25589;51.552;13.424;2023-10-19T12:43:17;15.82;;;11.13;;
39918;SDS011;25589;51.552;13.424;2023-10-19T12:45:44;15.45;;;10.82;;
39918;SDS011;25589;51.552;13.424;2023-10-19T12:48:15;13.32;;;10.23;;
39918;SDS011;25589;51.552;13.424;2023-10-19T12:50:41;13.38;;;10.32;;
39918;SDS011;25589;51.552;13.424;2023-10-19T12:53:07;14.45;;;10.10;;
39918;SDS011;25589;51.552;13.424;2023-10-19T12:55:34;16.20;;;10.60;;
39918;SDS011;25589;51.552;13.424;2023-10-19T12:58:02;13.95;;;10.40;;
39918;SDS011;25589;51.552;13.424;2023-10-19T13:00:37;14.15;;;10.10;;
39918;SDS011;25589;51.552;13.424;2023-10-19T13:03:07;14.63;;;10.48;;
39918;SDS011;25589;51.552;13.424;2023-10-19T13:05:33;22.77;;;13.98;;
39918;SDS011;25589;51.552;13.424;2023-10-19T13:07:59;18.25;;;12.15;;
39918;SDS011;25589;51.552;13.424;2023-10-19T13:10:29;13.35;;;9.65;;
39918;SDS011;25589;51.552;13.424;2023-10-19T13:12:59;10.93;;;8.83;;
39918;SDS011;25589;51.552;13.424;2023-10-19T13:15:28;21.42;;;14.02;;
39918;SDS011;25589;51.552;13.424;2023-10-19T13:17:59;20.58;;;16.90;;
39918;SDS011;25589;51.552;13.424;2023-10-19T13:20:26;15.02;;;11.55;;
39918;SDS011;25589;51.552;13.424;2023-10-19T13:22:53;12.05;;;10.38;;
39918;SDS011;25589;51.552;13.424;2023-10-19T13:25:19;14.50;;;10.10;;
39918;SDS011;25589;51.552;13.424;2023-10-19T13:27:53;10.82;;;9.13;;
39918;SDS011;25589;51.552;13.424;2023-10-19T13:30:19;13.68;;;9.98;;
39918;SDS011;25589;51.552;13.424;2023-10-19T13:32:44;12.27;;;9.70;;
39918;SDS011;25589;51.552;13.424;2023-10-19T13:35:11;11.15;;;9.65;;
39918;SDS011;25589;51.552;13.424;2023-10-19T13:37:36;13.85;;;9.48;;
39918;SDS011;25589;51.552;13.424;2023-10-19T13:40:03;13.02;;;9.38;;
39918;SDS011;25589;51.552;13.424;2023-10-19T13:42:31;16.67;;;10.20;;
39918;SDS011;25589;51.552;13.424;2023-10-19T13:44:57;12.02;;;9.90;;
39918;SDS011;25589;51.552;13.424;2023-10-19T13:47:22;11.88;;;9.73;;
39918;SDS011;25589;51.552;13.424;2023-10-19T13:49:48;11.32;;;9.35;;
39918;SDS011;25589;51.552;13.424;2023-10-19T13:52:13;11.25;;;9.75;;
39918;SDS011;25589;51.552;13.424;2023-10-19T13:54:40;11.88;;;9.52;;
39918;SDS011;25589;51.552;13.424;2023-10-19T13:57:06;12.18;;;9.85;;
39918;SDS011;25589;51.552;13.424;2023-10-19T13:59:31;14.30;;;9.60;;
39918;SDS011;25589;51.552;13.424;2023-10-19T14:02:00;11.45;;;9.40;;
39918;SDS011;25589;51.552;13.424;2023-10-19T14:04:25;12.23;;;9.63;;
39918;SDS011;25589;51.552;13.424;2023-10-19T14:06:51;12.50;;;9.38;;
39918;SDS011;25589;51.552;13.424;2023-10-19T14:09:16;10.73;;;9.13;;
39918;SDS011;25589;51.552;13.424;2023-10-19T14:11:43;13.70;;;10.15;;
39918;SDS011;25589;51.552;13.424;2023-10-19T14:14:09;12.95;;;9.85;;
39918;SDS011;25589;51.552;13.424;2023-10-19T14:16:36;14.02;;;10.65;;
39918;SDS011;25589;51.552;13.424;2023-10-19T14:19:02;13.40;;;10.18;;
39918;SDS011;25589;51.552;13.424;2023-10-19T14:21:29;12.40;;;9.82;;
39918;SDS011;25589;51.552;13.424;2023-10-19T14:23:55;12.63;;;10.50;;
39918;SDS011;25589;51.552;13.424;2023-10-19T14:26:20;11.88;;;10.13;;
39918;SDS011;25589;51.552;13.424;2023-10-19T14:28:46;14.38;;;11.05;;
39918;SDS011;25589;51.552;13.424;2023-10-19T14:31:12;52.50;;;24.88;;
39918;SDS011;25589;51.552;13.424;2023-10-19T14:33:38;38.00;;;17.40;;
39918;SDS011;25589;51.552;13.424;2023-10-19T14:36:04;48.42;;;25.20;;
39918;SDS011;25589;51.552;13.424;2023-10-19T14:38:30;17.02;;;12.82;;
39918;SDS011;25589;51.552;13.424;2023-10-19T14:40:56;18.17;;;14.00;;
39918;SDS011;25589;51.552;13.424;2023-10-19T14:43:22;78.95;;;43.22;;